createdAt,value
2022-11-20T00:01:15.187Z,76.79
2022-11-20T00:03:42.371Z,76.00
2022-11-20T00:06:11.497Z,75.17
2022-11-20T00:08:38.165Z,74.99
2022-11-20T00:11:21.760Z,75.35
2022-11-20T00:13:50.469Z,75.19
2022-11-20T00:16:20.079Z,75.34
2022-11-20T00:18:47.408Z,75.62
2022-11-20T00:21:19.037Z,74.76
2022-11-20T00:23:45.445Z,74.63
2022-11-20T00:26:14.457Z,74.73
2022-11-20T00:28:41.875Z,74.64
2022-11-20T00:31:11.628Z,74.58
2022-11-20T00:33:38.496Z,74.87
2022-11-20T00:36:07.658Z,74.73
2022-11-20T00:38:34.665Z,74.21
2022-11-20T00:41:03.567Z,74.13
2022-11-20T00:43:29.982Z,75.37
2022-11-20T00:46:04.104Z,74.78
2022-11-20T00:48:31.105Z,75.12
2022-11-20T00:50:58.001Z,74.71
2022-11-20T00:53:24.869Z,73.72
2022-11-20T00:56:13.169Z,72.36
2022-11-20T00:58:42.670Z,71.75
2022-11-20T01:01:12.553Z,71.61
2022-11-20T01:03:41.582Z,71.90
2022-11-20T01:06:16.862Z,71.70
2022-11-20T01:08:44.274Z,72.04
2022-11-20T01:11:18.882Z,72.25
2022-11-20T01:13:46.768Z,73.03
2022-11-20T01:16:33.829Z,72.46
2022-11-20T01:19:02.732Z,72.79
2022-11-20T01:21:34.839Z,73.25
2022-11-20T01:24:02.321Z,73.46
2022-11-20T01:26:30.906Z,73.07
2022-11-20T01:28:58.553Z,72.47
2022-11-20T01:31:34.085Z,72.36
2022-11-20T01:34:03.563Z,73.16
2022-11-20T01:36:31.742Z,72.87
2022-11-20T01:39:04.667Z,74.04
2022-11-20T01:41:51.718Z,73.45
2022-11-20T01:44:21.309Z,73.97
2022-11-20T01:47:01.242Z,74.16
2022-11-20T01:49:37.053Z,74.27
2022-11-20T01:52:15.481Z,74.45
2022-11-20T01:54:48.602Z,75.75
2022-11-20T01:57:17.186Z,75.81
2022-11-20T01:59:51.014Z,76.54
2022-11-20T02:02:17.377Z,76.58
2022-11-20T02:04:44.774Z,75.67
2022-11-20T02:07:11.669Z,75.78
2022-11-20T02:09:38.024Z,75.79
2022-11-20T02:12:04.919Z,75.33
2022-11-20T02:14:31.414Z,74.99
2022-11-20T02:16:58.473Z,75.23
2022-11-20T02:19:30.836Z,75.14
2022-11-20T02:22:06.470Z,74.51
2022-11-20T02:24:32.934Z,74.06
2022-11-20T02:27:07.222Z,74.31
2022-11-20T02:29:38.212Z,74.31
2022-11-20T02:32:04.923Z,75.21
2022-11-20T02:34:31.461Z,74.23
2022-11-20T02:36:59.753Z,74.08
2022-11-20T02:39:28.646Z,74.11
2022-11-20T02:41:56.834Z,73.98
2022-11-20T02:44:23.267Z,74.54
2022-11-20T02:46:49.618Z,74.53
2022-11-20T02:49:17.392Z,74.42
2022-11-20T02:51:43.754Z,74.67
2022-11-20T02:54:10.097Z,74.64
2022-11-20T02:56:39.404Z,74.57
2022-11-20T02:59:05.731Z,73.85
2022-11-20T03:01:32.093Z,74.06
2022-11-20T03:03:58.468Z,73.64
2022-11-20T03:06:24.857Z,73.42
2022-11-20T03:08:51.335Z,73.83
2022-11-20T03:11:17.978Z,73.45
2022-11-20T03:13:44.525Z,72.48
2022-11-20T03:16:14.017Z,71.93
2022-11-20T03:18:41.648Z,71.45
2022-11-20T03:21:08.785Z,71.76
2022-11-20T03:23:35.640Z,71.57
2022-11-20T03:26:31.437Z,70.92
2022-11-20T03:29:00.341Z,70.42
2022-11-20T03:31:30.385Z,70.66
2022-11-20T03:33:58.716Z,70.94
2022-11-20T03:36:25.925Z,70.96
2022-11-20T03:38:54.740Z,70.22
2022-11-20T03:41:23.372Z,70.65
2022-11-20T03:43:50.757Z,69.97
2022-11-20T03:46:17.655Z,71.23
2022-11-20T03:48:48.787Z,70.96
2022-11-20T03:51:20.143Z,71.73
2022-11-20T03:53:48.269Z,72.01
2022-11-20T03:56:17.413Z,71.22
2022-11-20T03:58:44.605Z,70.58
2022-11-20T04:01:13.943Z,70.28
2022-11-20T04:03:42.038Z,70.30
2022-11-20T04:06:11.729Z,70.07
2022-11-20T04:08:38.773Z,69.74
2022-11-20T04:11:11.229Z,69.58
2022-11-20T04:13:37.811Z,69.32
2022-11-20T04:16:05.435Z,69.57
2022-11-20T04:18:31.764Z,68.77
2022-11-20T04:20:59.370Z,69.16
2022-11-20T04:23:28.886Z,69.72
2022-11-20T04:25:55.793Z,69.88
2022-11-20T04:28:22.304Z,70.19
2022-11-20T04:30:48.697Z,70.36
2022-11-20T04:33:15.077Z,70.28
2022-11-20T04:35:41.615Z,69.77
2022-11-20T04:38:08.178Z,70.25
2022-11-20T04:40:34.507Z,69.80
2022-11-20T04:43:00.824Z,70.80
2022-11-20T04:45:27.175Z,69.98
2022-11-20T04:47:53.634Z,70.47
2022-11-20T04:50:19.943Z,70.89
2022-11-20T04:52:46.253Z,70.87
2022-11-20T04:55:12.565Z,70.38
2022-11-20T04:57:39.063Z,70.26
2022-11-20T05:00:06.226Z,70.25
2022-11-20T05:02:33.001Z,70.14
2022-11-20T05:04:59.307Z,70.38
2022-11-20T05:07:25.677Z,70.11
2022-11-20T05:09:52.022Z,69.40
2022-11-20T05:12:18.353Z,68.94
2022-11-20T05:14:45.257Z,69.73
2022-11-20T05:17:12.905Z,69.42
2022-11-20T05:19:39.227Z,68.88
2022-11-20T05:22:06.364Z,68.84
2022-11-20T05:24:32.692Z,69.61
2022-11-20T05:26:59.198Z,69.82
2022-11-20T05:29:25.564Z,70.18
2022-11-20T05:31:51.904Z,70.44
2022-11-20T05:34:18.429Z,70.94
2022-11-20T05:36:44.939Z,71.44
2022-11-20T05:39:11.326Z,71.30
2022-11-20T05:41:37.658Z,72.13
2022-11-20T05:44:04.119Z,72.55
2022-11-20T05:46:30.442Z,72.94
2022-11-20T05:48:58.273Z,73.37
2022-11-20T05:51:25.453Z,72.83
2022-11-20T05:53:51.864Z,73.25
2022-11-20T05:56:22.206Z,72.70
2022-11-20T05:58:49.583Z,73.01
2022-11-20T06:01:18.005Z,72.20
2022-11-20T06:03:48.864Z,72.45
2022-11-20T06:06:16.655Z,72.56
2022-11-20T06:08:43.520Z,72.07
2022-11-20T06:11:13.503Z,72.06
2022-11-20T06:13:42.477Z,72.03
2022-11-20T06:16:11.178Z,73.02
2022-11-20T06:18:38.110Z,73.04
2022-11-20T06:21:10.704Z,73.74
2022-11-20T06:23:37.529Z,74.15
2022-11-20T06:26:06.390Z,75.07
2022-11-20T06:28:33.007Z,76.06
2022-11-20T06:30:59.794Z,76.06
2022-11-20T06:33:26.443Z,77.04
2022-11-20T06:35:58.450Z,77.13
2022-11-20T06:38:27.896Z,76.35
2022-11-20T06:40:54.922Z,76.22
2022-11-20T06:43:22.693Z,75.97
2022-11-20T06:45:54.406Z,75.95
2022-11-20T06:48:21.141Z,76.32
2022-11-20T06:50:47.684Z,76.61
2022-11-20T06:53:14.034Z,76.47
2022-11-20T06:55:44.835Z,76.79
2022-11-20T06:58:11.798Z,76.44
2022-11-20T07:00:38.176Z,75.51
2022-11-20T07:03:05.246Z,75.66
2022-11-20T07:05:31.690Z,75.65
2022-11-20T07:07:58.685Z,75.44
2022-11-20T07:10:25.548Z,75.74
2022-11-20T07:12:53.190Z,75.95
2022-11-20T07:15:21.255Z,76.23
2022-11-20T07:17:47.882Z,77.03
2022-11-20T07:20:15.057Z,76.59
2022-11-20T07:22:42.004Z,75.89
2022-11-20T07:25:09.498Z,76.19
2022-11-20T07:27:36.363Z,75.76
2022-11-20T07:30:04.680Z,75.56
2022-11-20T07:32:31.294Z,75.77
2022-11-20T07:34:57.609Z,76.03
2022-11-20T07:37:24.112Z,76.11
2022-11-20T07:39:50.466Z,76.47
2022-11-20T07:42:16.861Z,76.86
2022-11-20T07:44:43.201Z,77.17
2022-11-20T07:47:09.518Z,77.54
2022-11-20T07:49:35.993Z,77.54
2022-11-20T07:52:04.977Z,77.53
2022-11-20T07:54:31.796Z,77.95
2022-11-20T07:56:58.169Z,78.14
2022-11-20T07:59:24.597Z,78.25
2022-11-20T08:01:50.957Z,77.83
2022-11-20T08:04:17.498Z,77.67
2022-11-20T08:06:43.960Z,77.95
2022-11-20T08:09:10.546Z,77.59
2022-11-20T08:11:55.467Z,77.39
2022-11-20T08:14:21.831Z,76.96
2022-11-20T08:16:49.949Z,76.58
2022-11-20T08:19:18.889Z,76.85
2022-11-20T08:21:45.904Z,76.83
2022-11-20T08:24:12.612Z,75.95
2022-11-20T08:26:40.077Z,75.83
2022-11-20T08:29:07.039Z,76.31
2022-11-20T08:31:33.409Z,76.49
2022-11-20T08:33:59.809Z,76.06
2022-11-20T08:36:26.362Z,76.46
2022-11-20T08:38:56.803Z,76.49
2022-11-20T08:41:27.557Z,75.89
2022-11-20T08:43:55.992Z,75.85
2022-11-20T08:46:23.815Z,75.92
2022-11-20T08:48:50.383Z,75.85
2022-11-20T08:51:17.706Z,75.00
2022-11-20T08:53:44.377Z,74.61
2022-11-20T08:56:10.940Z,74.50
2022-11-20T08:59:01.791Z,74.15
2022-11-20T09:01:24.574Z,73.49
2022-11-20T09:03:51.113Z,73.37
2022-11-20T09:06:17.633Z,73.78
2022-11-20T09:08:43.998Z,73.29
2022-11-20T09:11:10.645Z,72.89
2022-11-20T09:13:37.833Z,72.93
2022-11-20T09:16:07.374Z,72.99
2022-11-20T09:18:34.757Z,72.56
2022-11-20T09:21:02.663Z,72.58
2022-11-20T09:23:33.561Z,72.05
2022-11-20T09:26:03.558Z,71.78
2022-11-20T09:28:31.034Z,72.73
2022-11-20T09:30:57.369Z,72.44
2022-11-20T09:33:23.721Z,72.35
2022-11-20T09:35:50.052Z,72.32
2022-11-20T09:38:16.416Z,72.49
2022-11-20T09:40:59.213Z,72.00
2022-11-20T09:43:57.920Z,71.88
2022-11-20T09:46:43.954Z,73.16
2022-11-20T09:49:34.739Z,71.53
2022-11-20T09:52:26.808Z,71.12
2022-11-20T09:54:55.159Z,71.80
2022-11-20T09:57:26.255Z,71.34
2022-11-20T09:59:59.450Z,71.92
2022-11-20T10:02:35.734Z,70.66
2022-11-20T10:05:28.361Z,71.35
2022-11-20T10:08:02.892Z,70.96
2022-11-20T10:10:42.688Z,70.98
2022-11-20T10:13:32.865Z,71.39
2022-11-20T10:16:36.657Z,70.93
2022-11-20T10:19:20.351Z,71.32
2022-11-20T10:22:12.197Z,71.97
2022-11-20T10:24:55.209Z,70.99
2022-11-20T10:27:27.525Z,70.80
2022-11-20T10:30:10.810Z,70.69
2022-11-20T10:32:43.209Z,70.29
2022-11-20T10:35:36.628Z,69.72
2022-11-20T10:38:10.766Z,69.07
2022-11-20T10:40:46.710Z,69.20
2022-11-20T10:43:16.196Z,67.95
2022-11-20T10:46:00.006Z,68.07
2022-11-20T10:48:28.837Z,68.01
2022-11-20T10:51:31.361Z,68.64
2022-11-20T10:54:07.435Z,68.64
2022-11-20T10:56:48.336Z,68.63
2022-11-20T10:59:55.154Z,68.51
2022-11-20T11:02:33.278Z,68.31
2022-11-20T11:05:15.620Z,68.77
2022-11-20T11:07:43.179Z,68.91
2022-11-20T11:10:26.933Z,68.63
2022-11-20T11:12:53.432Z,68.72
2022-11-20T11:15:37.805Z,68.93
2022-11-20T11:18:04.433Z,68.59
2022-11-20T11:20:31.053Z,68.92
2022-11-20T11:22:59.736Z,69.08
2022-11-20T11:25:36.586Z,68.69
2022-11-20T11:28:25.708Z,67.76
2022-11-20T11:30:52.774Z,67.80
2022-11-20T11:33:22.547Z,68.22
2022-11-20T11:35:53.365Z,68.30
2022-11-20T11:38:38.033Z,66.95
2022-11-20T11:41:05.934Z,65.85
2022-11-20T11:43:54.003Z,65.32
2022-11-20T11:46:35.830Z,65.89
2022-11-20T11:49:16.248Z,65.95
2022-11-20T11:52:14.860Z,65.32
2022-11-20T11:54:51.894Z,64.91
2022-11-20T11:57:28.022Z,64.82
2022-11-20T12:00:09.749Z,65.14
2022-11-20T12:02:53.403Z,65.53
2022-11-20T12:05:30.202Z,65.73
2022-11-20T12:08:27.285Z,65.17
2022-11-20T12:11:25.109Z,65.73
2022-11-20T12:13:59.256Z,65.23
2022-11-20T12:16:25.596Z,65.40
2022-11-20T12:18:53.548Z,66.33
2022-11-20T12:21:28.536Z,65.73
2022-11-20T12:24:07.569Z,66.09
2022-11-20T12:26:46.447Z,65.33
2022-11-20T12:29:27.257Z,64.89
2022-11-20T12:32:15.217Z,64.86
2022-11-20T12:34:58.494Z,64.78
2022-11-20T12:37:38.291Z,64.79
2022-11-20T12:40:34.480Z,64.71
2022-11-20T12:43:39.686Z,64.51
2022-11-20T12:46:17.666Z,64.40
2022-11-20T12:48:50.103Z,65.65
2022-11-20T12:51:25.416Z,65.70
2022-11-20T12:54:07.290Z,65.58
2022-11-20T12:56:43.945Z,65.45
2022-11-20T12:59:17.653Z,65.74
2022-11-20T13:01:51.510Z,64.77
2022-11-20T13:04:40.113Z,64.31
2022-11-20T13:07:15.307Z,63.43
2022-11-20T13:09:46.830Z,60.98
2022-11-20T13:12:24.542Z,59.36
2022-11-20T13:15:15.818Z,59.27
2022-11-20T13:17:52.682Z,59.22
2022-11-20T13:20:20.194Z,58.65
2022-11-20T13:22:51.866Z,58.71
2022-11-20T13:25:34.693Z,62.43
2022-11-20T13:28:05.206Z,62.41
2022-11-20T13:30:32.399Z,62.34
2022-11-20T13:33:01.961Z,62.78
2022-11-20T13:35:41.152Z,62.94
2022-11-20T13:38:14.115Z,62.99
2022-11-20T13:41:24.665Z,61.87
2022-11-20T13:43:53.268Z,60.85
2022-11-20T13:46:25.401Z,59.98
2022-11-20T13:48:55.673Z,59.80
2022-11-20T13:51:31.237Z,59.00
2022-11-20T13:54:18.710Z,60.02
2022-11-20T13:57:10.834Z,59.64
2022-11-20T14:00:05.800Z,59.70
2022-11-20T14:02:32.323Z,59.80
2022-11-20T14:05:00.672Z,58.37
2022-11-20T14:07:35.873Z,58.65
2022-11-20T14:10:02.400Z,58.92
2022-11-20T14:12:34.705Z,59.15
2022-11-20T14:15:01.309Z,60.62
2022-11-20T14:17:35.519Z,60.96
2022-11-20T14:20:13.335Z,60.89
2022-11-20T14:22:39.641Z,60.62
2022-11-20T14:25:15.235Z,61.54
2022-11-20T14:27:43.657Z,61.41
2022-11-20T14:30:22.355Z,62.42
2022-11-20T14:32:50.020Z,63.19
2022-11-20T14:35:26.486Z,62.22
2022-11-20T14:37:53.587Z,62.78
2022-11-20T14:40:26.591Z,62.47
2022-11-20T14:42:53.012Z,61.58
2022-11-20T14:45:20.606Z,61.29
2022-11-20T14:47:47.610Z,60.84
2022-11-20T14:50:19.740Z,59.95
2022-11-20T14:52:56.013Z,60.32
2022-11-20T14:55:31.875Z,62.24
2022-11-20T14:58:04.113Z,60.89
2022-11-20T15:00:33.662Z,60.25
2022-11-20T15:03:00.027Z,59.96
2022-11-20T15:05:46.129Z,59.82
2022-11-20T15:08:13.830Z,60.84
2022-11-20T15:10:49.784Z,60.85
2022-11-20T15:13:37.540Z,59.21
2022-11-20T15:16:10.933Z,58.37
2022-11-20T15:18:40.543Z,57.69
2022-11-20T15:21:15.441Z,57.08
2022-11-20T15:23:42.424Z,56.78
2022-11-20T15:26:14.207Z,57.00
2022-11-20T15:28:45.098Z,56.57
2022-11-20T15:31:16.736Z,56.42
2022-11-20T15:33:43.509Z,57.01
2022-11-20T15:36:10.734Z,57.24
2022-11-20T15:38:37.973Z,58.02
2022-11-20T15:41:04.850Z,58.54
2022-11-20T15:43:31.206Z,58.73
2022-11-20T15:46:23.865Z,58.75
2022-11-20T15:48:55.071Z,59.67
2022-11-20T15:51:29.856Z,59.89
2022-11-20T15:53:57.284Z,60.14
2022-11-20T15:56:24.199Z,59.73
2022-11-20T15:58:50.578Z,59.78
2022-11-20T16:01:19.207Z,59.51
2022-11-20T16:03:46.050Z,59.06
2022-11-20T16:06:12.700Z,58.91
2022-11-20T16:08:39.513Z,58.81
2022-11-20T16:11:05.916Z,59.17
2022-11-20T16:13:51.406Z,59.28
2022-11-20T16:16:30.962Z,58.51
2022-11-20T16:18:57.874Z,58.42
2022-11-20T16:21:33.388Z,58.39
2022-11-20T16:24:01.439Z,58.49
2022-11-20T16:26:28.670Z,58.23
2022-11-20T16:28:55.453Z,58.44
2022-11-20T16:31:22.607Z,58.22
2022-11-20T16:33:53.599Z,58.44
2022-11-20T16:36:21.476Z,58.90
2022-11-20T16:38:53.305Z,59.08
2022-11-20T16:41:19.960Z,59.53
2022-11-20T16:43:51.546Z,59.72
2022-11-20T16:46:20.609Z,59.89
2022-11-20T16:48:54.817Z,60.45
2022-11-20T16:51:21.910Z,60.49
2022-11-20T16:53:50.447Z,60.75
2022-11-20T16:56:19.739Z,60.87
2022-11-20T16:58:47.918Z,60.77
2022-11-20T17:01:16.788Z,60.92
2022-11-20T17:03:46.242Z,61.46
2022-11-20T17:06:17.892Z,61.33
2022-11-20T17:08:45.042Z,61.35
2022-11-20T17:11:14.158Z,61.32
2022-11-20T17:13:40.899Z,60.77
2022-11-20T17:16:10.157Z,61.29
2022-11-20T17:18:36.814Z,61.39
2022-11-20T17:21:05.296Z,61.83
2022-11-20T17:23:33.177Z,62.23
2022-11-20T17:26:06.427Z,62.11
2022-11-20T17:28:33.590Z,62.25
2022-11-20T17:31:05.488Z,62.92
2022-11-20T17:33:33.665Z,63.61
2022-11-20T17:35:59.981Z,64.17
2022-11-20T17:38:26.419Z,63.88
2022-11-20T17:40:53.032Z,63.38
2022-11-20T17:43:19.581Z,63.96
2022-11-20T17:45:46.182Z,64.15
2022-11-20T17:48:12.497Z,63.76
2022-11-20T17:50:38.814Z,63.91
2022-11-20T17:53:05.143Z,63.49
2022-11-20T17:55:55.504Z,63.71
2022-11-20T17:58:22.194Z,63.46
2022-11-20T18:00:48.513Z,64.47
2022-11-20T18:03:14.889Z,64.74
2022-11-20T18:05:41.234Z,64.35
2022-11-20T18:08:07.558Z,64.79
2022-11-20T18:10:35.096Z,65.28
2022-11-20T18:13:01.439Z,65.10
2022-11-20T18:15:27.830Z,64.94
2022-11-20T18:17:54.375Z,65.49
2022-11-20T18:20:29.354Z,66.07
2022-11-20T18:22:57.036Z,66.04
2022-11-20T18:25:23.480Z,66.24
2022-11-20T18:27:49.981Z,67.21
2022-11-20T18:30:18.973Z,67.08
2022-11-20T18:32:45.277Z,68.33
2022-11-20T18:35:11.660Z,67.88
2022-11-20T18:37:37.975Z,67.55
2022-11-20T18:40:04.975Z,67.73
2022-11-20T18:42:49.713Z,67.27
2022-11-20T18:45:16.166Z,68.10
2022-11-20T18:47:43.770Z,68.71
2022-11-20T18:50:10.261Z,68.77
2022-11-20T18:52:44.146Z,69.29
2022-11-20T18:55:11.021Z,69.00
2022-11-20T18:57:37.343Z,69.32
2022-11-20T19:00:09.236Z,69.45
2022-11-20T19:02:40.961Z,69.41
2022-11-20T19:05:08.961Z,70.32
2022-11-20T19:07:35.361Z,70.94
2022-11-20T19:10:03.912Z,72.36
2022-11-20T19:12:30.614Z,71.75
2022-11-20T19:14:56.953Z,72.80
2022-11-20T19:17:23.330Z,73.15
2022-11-20T19:19:50.313Z,72.99
2022-11-20T19:22:17.010Z,74.06
2022-11-20T19:24:43.361Z,74.30
2022-11-20T19:27:09.750Z,74.36
2022-11-20T19:29:36.591Z,75.81
2022-11-20T19:32:04.338Z,76.77
2022-11-20T19:34:31.368Z,76.72
2022-11-20T19:36:57.959Z,76.18
2022-11-20T19:39:24.539Z,76.96
2022-11-20T19:41:51.071Z,77.25
2022-11-20T19:44:17.822Z,78.75
2022-11-20T19:46:44.687Z,78.96
2022-11-20T19:49:13.874Z,79.37
2022-11-20T19:51:45.737Z,79.88
2022-11-20T19:54:12.763Z,79.51
2022-11-20T19:56:39.217Z,79.23
2022-11-20T19:59:05.663Z,78.96
2022-11-20T20:01:32.270Z,79.26
2022-11-20T20:04:05.117Z,79.40
2022-11-20T20:06:33.508Z,80.51
2022-11-20T20:09:04.178Z,81.19
2022-11-20T20:11:32.913Z,80.83
2022-11-20T20:14:04.287Z,81.92
2022-11-20T20:16:30.976Z,82.34
2022-11-20T20:18:59.381Z,82.19
2022-11-20T20:21:25.769Z,81.67
2022-11-20T20:23:55.756Z,80.19
2022-11-20T20:26:23.962Z,80.34
2022-11-20T20:28:50.880Z,80.65
2022-11-20T20:31:20.923Z,80.02
2022-11-20T20:33:47.281Z,80.50
2022-11-20T20:36:16.310Z,81.60
2022-11-20T20:38:44.126Z,80.98
2022-11-20T20:41:10.567Z,81.01
2022-11-20T20:43:56.546Z,81.13
2022-11-20T20:46:23.615Z,82.00
2022-11-20T20:48:54.197Z,81.74
2022-11-20T20:51:21.127Z,81.86
2022-11-20T20:53:47.485Z,81.94
2022-11-20T20:56:14.017Z,81.09
2022-11-20T20:58:40.953Z,81.65
2022-11-20T21:01:09.543Z,81.60
2022-11-20T21:03:36.391Z,81.27
2022-11-20T21:06:04.433Z,81.28
2022-11-20T21:08:30.865Z,81.89
2022-11-20T21:11:06.191Z,81.42
2022-11-20T21:13:33.959Z,82.11
2022-11-20T21:16:00.655Z,81.64
2022-11-20T21:18:27.412Z,81.90
2022-11-20T21:21:12.994Z,82.35
2022-11-20T21:23:39.749Z,82.86
2022-11-20T21:26:08.096Z,82.72
2022-11-20T21:28:37.303Z,82.56
2022-11-20T21:31:09.157Z,83.23
2022-11-20T21:33:37.493Z,82.90
2022-11-20T21:36:04.169Z,83.75
2022-11-20T21:38:30.511Z,82.79
2022-11-20T21:41:00.501Z,82.95
2022-11-20T21:43:27.570Z,83.20
2022-11-20T21:45:56.494Z,82.70
2022-11-20T21:48:23.509Z,82.75
2022-11-20T21:50:49.821Z,82.19
2022-11-20T21:53:16.138Z,82.69
2022-11-20T21:55:42.482Z,81.71
2022-11-20T21:58:08.860Z,81.60
2022-11-20T22:00:35.179Z,82.34
2022-11-20T22:03:01.577Z,82.26
2022-11-20T22:05:27.894Z,81.77
2022-11-20T22:07:54.370Z,82.00
2022-11-20T22:10:20.764Z,81.68
2022-11-20T22:12:47.141Z,82.27
2022-11-20T22:15:13.694Z,82.36
2022-11-20T22:18:15.262Z,82.32
2022-11-20T22:20:41.639Z,82.64
2022-11-20T22:23:07.994Z,83.13
2022-11-20T22:25:34.386Z,82.92
2022-11-20T22:28:00.756Z,83.36
2022-11-20T22:30:27.102Z,82.66
2022-11-20T22:32:55.596Z,81.97
2022-11-20T22:35:22.324Z,82.01
2022-11-20T22:37:49.475Z,82.20
2022-11-20T22:40:16.361Z,81.70
2022-11-20T22:42:46.440Z,81.37
2022-11-20T22:45:13.949Z,81.48
2022-11-20T22:47:40.281Z,81.42
2022-11-20T22:50:07.032Z,81.63
2022-11-20T22:52:33.539Z,81.26
2022-11-20T22:54:59.838Z,80.97
2022-11-20T22:57:26.235Z,81.12
2022-11-20T23:00:02.161Z,81.43
2022-11-20T23:02:28.497Z,80.70
2022-11-20T23:04:54.932Z,81.36
2022-11-20T23:07:21.291Z,81.42
2022-11-20T23:09:47.630Z,81.38
2022-11-20T23:12:13.977Z,81.28
2022-11-20T23:14:40.594Z,81.50
2022-11-20T23:17:06.917Z,81.01
2022-11-20T23:19:33.218Z,81.38
2022-11-20T23:21:59.544Z,81.19
2022-11-20T23:24:26.084Z,81.40
2022-11-20T23:26:52.851Z,81.67
2022-11-20T23:29:19.190Z,81.07
2022-11-20T23:31:45.577Z,81.10
2022-11-20T23:34:12.070Z,80.92
2022-11-20T23:36:38.429Z,80.77
2022-11-20T23:39:04.817Z,80.63
2022-11-20T23:41:31.153Z,80.22
2022-11-20T23:43:57.469Z,80.28
2022-11-20T23:46:23.793Z,80.47
2022-11-20T23:48:59.509Z,80.98
2022-11-20T23:51:25.847Z,80.72
2022-11-20T23:53:52.198Z,80.86
2022-11-20T23:56:18.543Z,80.98
2022-11-20T23:58:44.931Z,80.82
